Aviation Digital Data Service (ADDS)

Output produced by METARs form (1820 UTC 06 July 2020)
found at http://aviationweather.gov/metar/data/
 
METAR text: KARR 061752Z VRB03KT 7SM FEW050 33/19 A3002 RMK AO2 SLP159 T03330189 10333 20211 58005
Conditions at: KARR (CHICAGO/AURORA , IL, US) observed 1752 UTC 06 July 2020
Temperature: 33.3°C (92°F)
Dewpoint: 18.9°C (66°F) [RH = 43%]
Pressure (altimeter): 30.02 inches Hg (1016.7 mb)
[Sea-level pressure: 1015.9 mb]
Winds: variable direction winds at 3 MPH (3 knots; 1.5 m/s)
Visibility: 7 miles (11 km)
Ceiling: at least 12,000 feet AGL
Clouds: few clouds at 5000 feet AGL
Weather: no significant weather observed at this time